sensor_id;sensor_type;location;lat;lon;timestamp;pressure;altitude;pressure_sealevel;temperature
76009;BMP280;64700;52.130;21.270;2023-04-01T00:00:44;98635.94;;;21.33
76009;BMP280;64700;52.130;21.270;2023-04-01T00:03:09;98627.78;;;21.33
76009;BMP280;64700;52.130;21.270;2023-04-01T00:05:34;98623.09;;;21.33
76009;BMP280;64700;52.130;21.270;2023-04-01T00:08:00;98627.28;;;21.35
76009;BMP280;64700;52.130;21.270;2023-04-01T00:10:25;98625.31;;;21.35
76009;BMP280;64700;52.130;21.270;2023-04-01T00:12:51;98621.84;;;21.35
76009;BMP280;64700;52.130;21.270;2023-04-01T00:15:16;98611.47;;;21.33
76009;BMP280;64700;52.130;21.270;2023-04-01T00:17:41;98611.47;;;21.33
76009;BMP280;64700;52.130;21.270;2023-04-01T00:20:07;98610.53;;;21.30
76009;BMP280;64700;52.130;21.270;2023-04-01T00:22:32;98610.75;;;21.32
76009;BMP280;64700;52.130;21.270;2023-04-01T00:24:58;98610.00;;;21.32
76009;BMP280;64700;52.130;21.270;2023-04-01T00:27:24;98605.53;;;21.35
76009;BMP280;64700;52.130;21.270;2023-04-01T00:29:49;98599.88;;;21.32
76009;BMP280;64700;52.130;21.270;2023-04-01T00:32:15;98599.88;;;21.32
76009;BMP280;64700;52.130;21.270;2023-04-01T00:34:40;98615.44;;;21.32
76009;BMP280;64700;52.130;21.270;2023-04-01T00:37:06;98612.72;;;21.32
76009;BMP280;64700;52.130;21.270;2023-04-01T00:39:32;98597.69;;;21.31
76009;BMP280;64700;52.130;21.270;2023-04-01T00:41:58;98602.38;;;21.30
76009;BMP280;64700;52.130;21.270;2023-04-01T00:44:25;98604.06;;;21.33
76009;BMP280;64700;52.130;21.270;2023-04-01T00:46:50;98599.56;;;21.36
76009;BMP280;64700;52.130;21.270;2023-04-01T00:49:17;98596.84;;;21.36
76009;BMP280;64700;52.130;21.270;2023-04-01T00:51:44;98599.38;;;21.34
76009;BMP280;64700;52.130;21.270;2023-04-01T00:54:11;98600.91;;;21.29
76009;BMP280;64700;52.130;21.270;2023-04-01T00:56:37;98598.84;;;21.36
76009;BMP280;64700;52.130;21.270;2023-04-01T00:59:10;98597.59;;;21.37
76009;BMP280;64700;52.130;21.270;2023-04-01T01:01:36;98600.31;;;21.37
76009;BMP280;64700;52.130;21.270;2023-04-01T01:04:02;98596.13;;;21.36
76009;BMP280;64700;52.130;21.270;2023-04-01T01:17:04;98608.78;;;21.33
76009;BMP280;64700;52.130;21.270;2023-04-01T01:19:33;98609.81;;;21.30
76009;BMP280;64700;52.130;21.270;2023-04-01T01:27:09;98615.44;;;21.32
76009;BMP280;64700;52.130;21.270;2023-04-01T01:34:55;98611.28;;;21.31
76009;BMP280;64700;52.130;21.270;2023-04-01T01:37:23;98612.22;;;21.33
76009;BMP280;64700;52.130;21.270;2023-04-01T01:40:00;98617.72;;;21.28
76009;BMP280;64700;52.130;21.270;2023-04-01T01:42:26;98617.44;;;21.31
76009;BMP280;64700;52.130;21.270;2023-04-01T01:44:53;98609.06;;;21.29
76009;BMP280;64700;52.130;21.270;2023-04-01T01:47:20;98597.69;;;21.31
76009;BMP280;64700;52.130;21.270;2023-04-01T01:49:46;98601.13;;;21.31
76009;BMP280;64700;52.130;21.270;2023-04-01T01:52:12;98605.28;;;21.38
76009;BMP280;64700;52.130;21.270;2023-04-01T01:54:46;98596.06;;;21.41
76009;BMP280;64700;52.130;21.270;2023-04-01T01:57:12;98591.59;;;21.44
76009;BMP280;64700;52.130;21.270;2023-04-01T01:59:38;98590.94;;;21.38
76009;BMP280;64700;52.130;21.270;2023-04-01T02:02:04;98589.97;;;21.35
76009;BMP280;64700;52.130;21.270;2023-04-01T02:04:34;98595.91;;;21.33
76009;BMP280;64700;52.130;21.270;2023-04-01T02:07:02;98598.94;;;21.30
76009;BMP280;64700;52.130;21.270;2023-04-01T02:09:27;98590.03;;;21.29
76009;BMP280;64700;52.130;21.270;2023-04-01T02:11:57;98575.50;;;21.27
76009;BMP280;64700;52.130;21.270;2023-04-01T02:14:33;98578.94;;;21.27
76009;BMP280;64700;52.130;21.270;2023-04-01T02:19:29;98574.78;;;21.26
76009;BMP280;64700;52.130;21.270;2023-04-01T02:22:00;98567.34;;;21.27
76009;BMP280;64700;52.130;21.270;2023-04-01T02:24:26;98565.34;;;21.27
76009;BMP280;64700;52.130;21.270;2023-04-01T02:26:52;98570.28;;;21.29
76009;BMP280;64700;52.130;21.270;2023-04-01T02:29:20;98567.56;;;21.29
76009;BMP280;64700;52.130;21.270;2023-04-01T02:31:46;98569.53;;;21.28
76009;BMP280;64700;52.130;21.270;2023-04-01T02:34:12;98565.56;;;21.29
76009;BMP280;64700;52.130;21.270;2023-04-01T02:36:38;98562.13;;;21.29
76009;BMP280;64700;52.130;21.270;2023-04-01T02:39:03;98568.81;;;21.28
76009;BMP280;64700;52.130;21.270;2023-04-01T02:41:29;98569.78;;;21.30
76009;BMP280;64700;52.130;21.270;2023-04-01T02:43:55;98576.44;;;21.29
76009;BMP280;64700;52.130;21.270;2023-04-01T02:46:22;98575.22;;;21.30
76009;BMP280;64700;52.130;21.270;2023-04-01T02:48:47;98579.16;;;21.29
76009;BMP280;64700;52.130;21.270;2023-04-01T02:51:12;98581.59;;;21.33
76009;BMP280;64700;52.130;21.270;2023-04-01T02:53:37;98578.88;;;21.33
76009;BMP280;64700;52.130;21.270;2023-04-01T02:56:03;98582.31;;;21.33
76009;BMP280;64700;52.130;21.270;2023-04-01T02:58:28;98575.94;;;21.31
76009;BMP280;64700;52.130;21.270;2023-04-01T03:00:53;98573.22;;;21.31
76009;BMP280;64700;52.130;21.270;2023-04-01T03:03:18;98575.41;;;21.32
76009;BMP280;64700;52.130;21.270;2023-04-01T03:05:44;98571.97;;;21.32
76009;BMP280;64700;52.130;21.270;2023-04-01T03:08:09;98575.38;;;21.38
76009;BMP280;64700;52.130;21.270;2023-04-01T03:10:35;98575.09;;;21.36
76009;BMP280;64700;52.130;21.270;2023-04-01T03:13:00;98575.84;;;21.37
76009;BMP280;64700;52.130;21.270;2023-04-01T03:15:25;98574.91;;;21.34
76009;BMP280;64700;52.130;21.270;2023-04-01T03:17:50;98580.34;;;21.34
76009;BMP280;64700;52.130;21.270;2023-04-01T03:20:16;98586.53;;;21.35
76009;BMP280;64700;52.130;21.270;2023-04-01T03:22:42;98586.28;;;21.32
76009;BMP280;64700;52.130;21.270;2023-04-01T03:25:07;98581.59;;;21.33
76009;BMP280;64700;52.130;21.270;2023-04-01T03:27:33;98599.38;;;21.34
76009;BMP280;64700;52.130;21.270;2023-04-01T03:29:58;98595.25;;;21.27
76009;BMP280;64700;52.130;21.270;2023-04-01T03:32:24;98597.47;;;21.29
76009;BMP280;64700;52.130;21.270;2023-04-01T03:34:49;98599.88;;;21.32
76009;BMP280;64700;52.130;21.270;2023-04-01T03:37:14;98607.28;;;21.32
76009;BMP280;64700;52.130;21.270;2023-04-01T03:39:40;98601.13;;;21.31
76009;BMP280;64700;52.130;21.270;2023-04-01T03:42:05;98605.31;;;21.32
76009;BMP280;64700;52.130;21.270;2023-04-01T03:44:31;98605.09;;;21.30
76009;BMP280;64700;52.130;21.270;2023-04-01T03:46:57;98608.03;;;21.32
76009;BMP280;64700;52.130;21.270;2023-04-01T03:49:22;98610.00;;;21.32
76009;BMP280;64700;52.130;21.270;2023-04-01T03:51:47;98614.50;;;21.29
76009;BMP280;64700;52.130;21.270;2023-04-01T03:54:13;98617.22;;;21.29
76009;BMP280;64700;52.130;21.270;2023-04-01T03:56:38;98621.41;;;21.30
76009;BMP280;64700;52.130;21.270;2023-04-01T03:59:04;98619.72;;;21.27
76009;BMP280;64700;52.130;21.270;2023-04-01T04:01:30;98623.16;;;21.28
76009;BMP280;64700;52.130;21.270;2023-04-01T04:03:55;98622.16;;;21.31
76009;BMP280;64700;52.130;21.270;2023-04-01T04:06:21;98624.63;;;21.29
76009;BMP280;64700;52.130;21.270;2023-04-01T04:08:46;98621.41;;;21.30
76009;BMP280;64700;52.130;21.270;2023-04-01T04:11:11;98628.31;;;21.31
76009;BMP280;64700;52.130;21.270;2023-04-01T04:13:36;98626.03;;;21.36
76009;BMP280;64700;52.130;21.270;2023-04-01T04:16:02;98636.91;;;21.36
76009;BMP280;64700;52.130;21.270;2023-04-01T04:18:27;98635.66;;;21.37
76009;BMP280;64700;52.130;21.270;2023-04-01T04:20:53;98644.53;;;21.37
76009;BMP280;64700;52.130;21.270;2023-04-01T04:23:18;98650.44;;;21.41
76009;BMP280;64700;52.130;21.270;2023-04-01T04:26:03;98644.81;;;21.39
76009;BMP280;64700;52.130;21.270;2023-04-01T04:28:28;98653.69;;;21.40
76009;BMP280;64700;52.130;21.270;2023-04-01T04:30:54;98642.59;;;21.38
76009;BMP280;64700;52.130;21.270;2023-04-01T04:33:20;98644.50;;;21.43
76009;BMP280;64700;52.130;21.270;2023-04-01T04:35:45;98645.97;;;21.44
76009;BMP280;64700;52.130;21.270;2023-04-01T04:38:10;98647.97;;;21.43
76009;BMP280;64700;52.130;21.270;2023-04-01T04:40:36;98646.25;;;21.40
76009;BMP280;64700;52.130;21.270;2023-04-01T04:43:02;98661.63;;;21.38
76009;BMP280;64700;52.130;21.270;2023-04-01T04:45:27;98657.41;;;21.37
76009;BMP280;64700;52.130;21.270;2023-04-01T04:47:52;98656.47;;;21.34
76009;BMP280;64700;52.130;21.270;2023-04-01T04:50:18;98649.53;;;21.33
76009;BMP280;64700;52.130;21.270;2023-04-01T04:54:35;98658.19;;;21.31
76009;BMP280;64700;52.130;21.270;2023-04-01T04:57:01;98658.19;;;21.31
76009;BMP280;64700;52.130;21.270;2023-04-01T04:59:26;98656.22;;;21.32
76009;BMP280;64700;52.130;21.270;2023-04-01T05:04:09;98659.16;;;21.34
76009;BMP280;64700;52.130;21.270;2023-04-01T05:06:34;98653.28;;;21.30
76009;BMP280;64700;52.130;21.270;2023-04-01T05:09:00;98658.19;;;21.31
76009;BMP280;64700;52.130;21.270;2023-04-01T05:11:25;98654.25;;;21.32
76009;BMP280;64700;52.130;21.270;2023-04-01T05:13:51;98652.56;;;21.29
76009;BMP280;64700;52.130;21.270;2023-04-01T05:16:17;98661.66;;;21.32
76009;BMP280;64700;52.130;21.270;2023-04-01T05:18:42;98661.88;;;21.34
76009;BMP280;64700;52.130;21.270;2023-04-01T05:21:08;98667.84;;;21.32
76009;BMP280;64700;52.130;21.270;2023-04-01T05:23:34;98662.94;;;21.31
76009;BMP280;64700;52.130;21.270;2023-04-01T05:26:06;98661.66;;;21.32
76009;BMP280;64700;52.130;21.270;2023-04-01T05:28:32;98668.56;;;21.33
76009;BMP280;64700;52.130;21.270;2023-04-01T05:31:00;98668.28;;;21.37
76009;BMP280;64700;52.130;21.270;2023-04-01T05:33:26;98666.75;;;21.41
76009;BMP280;64700;52.130;21.270;2023-04-01T05:35:52;98672.94;;;21.42
76009;BMP280;64700;52.130;21.270;2023-04-01T05:38:17;98660.59;;;21.41
76009;BMP280;64700;52.130;21.270;2023-04-01T05:40:42;98668.75;;;21.41
76009;BMP280;64700;52.130;21.270;2023-04-01T05:43:07;98668.53;;;21.39
76009;BMP280;64700;52.130;21.270;2023-04-01T05:45:33;98674.19;;;21.41
76009;BMP280;64700;52.130;21.270;2023-04-01T05:47:58;98674.41;;;21.43
76009;BMP280;64700;52.130;21.270;2023-04-01T05:50:24;98674.13;;;21.46
76009;BMP280;64700;52.130;21.270;2023-04-01T05:52:49;98674.13;;;21.46
76009;BMP280;64700;52.130;21.270;2023-04-01T05:55:14;98672.88;;;21.47
76009;BMP280;64700;52.130;21.270;2023-04-01T05:57:40;98674.84;;;21.47
76009;BMP280;64700;52.130;21.270;2023-04-01T06:00:05;98679.41;;;21.14
76009;BMP280;64700;52.130;21.270;2023-04-01T06:02:31;98678.13;;;20.91
76009;BMP280;64700;52.130;21.270;2023-04-01T06:05:17;98684.13;;;20.84
76009;BMP280;64700;52.130;21.270;2023-04-01T06:07:43;98679.88;;;20.94
76009;BMP280;64700;52.130;21.270;2023-04-01T06:10:16;98686.50;;;21.23
76009;BMP280;64700;52.130;21.270;2023-04-01T06:12:51;98685.91;;;21.30
76009;BMP280;64700;52.130;21.270;2023-04-01T06:15:26;98686.56;;;21.36
76009;BMP280;64700;52.130;21.270;2023-04-01T06:18:03;98680.19;;;21.33
76009;BMP280;64700;52.130;21.270;2023-04-01T06:25:46;98675.34;;;21.26
76009;BMP280;64700;52.130;21.270;2023-04-01T06:28:23;98678.78;;;21.27
76009;BMP280;64700;52.130;21.270;2023-04-01T06:31:16;98690.09;;;21.31
76009;BMP280;64700;52.130;21.270;2023-04-01T06:49:10;98686.50;;;21.23
76009;BMP280;64700;52.130;21.270;2023-04-01T06:56:33;98682.78;;;21.20
76009;BMP280;64700;52.130;21.270;2023-04-01T06:59:04;98677.53;;;21.28
76009;BMP280;64700;52.130;21.270;2023-04-01T07:04:36;98682.75;;;21.26
76009;BMP280;64700;52.130;21.270;2023-04-01T07:09:41;98677.09;;;21.24
76009;BMP280;64700;52.130;21.270;2023-04-01T07:15:02;98682.50;;;21.24
76009;BMP280;64700;52.130;21.270;2023-04-01T07:17:30;98680.03;;;21.26
76009;BMP280;64700;52.130;21.270;2023-04-01T07:22:52;98686.09;;;21.38
76009;BMP280;64700;52.130;21.270;2023-04-01T07:27:45;98686.09;;;21.38
76009;BMP280;64700;52.130;21.270;2023-04-01T07:30:14;98679.13;;;21.42
76009;BMP280;64700;52.130;21.270;2023-04-01T07:40:45;98683.41;;;21.32
76009;BMP280;64700;52.130;21.270;2023-04-01T07:43:18;98677.75;;;21.30
76009;BMP280;64700;52.130;21.270;2023-04-01T07:48:43;98680.91;;;21.34
76009;BMP280;64700;52.130;21.270;2023-04-01T07:51:13;98674.72;;;21.39
76009;BMP280;64700;52.130;21.270;2023-04-01T07:56:08;98673.59;;;21.48
76009;BMP280;64700;52.130;21.270;2023-04-01T07:58:38;98675.78;;;21.49
76009;BMP280;64700;52.130;21.270;2023-04-01T08:06:22;98689.19;;;21.47
76009;BMP280;64700;52.130;21.270;2023-04-01T08:16:35;98689.56;;;21.57
76009;BMP280;64700;52.130;21.270;2023-04-01T08:19:19;98696.19;;;21.61
76009;BMP280;64700;52.130;21.270;2023-04-01T08:21:51;98694.06;;;21.54
76009;BMP280;64700;52.130;21.270;2023-04-01T08:24:34;98695.25;;;21.59
76009;BMP280;64700;52.130;21.270;2023-04-01T08:27:01;98705.81;;;21.62
76009;BMP280;64700;52.130;21.270;2023-04-01T08:31:58;98701.13;;;21.63
76009;BMP280;64700;52.130;21.270;2023-04-01T08:34:26;98706.25;;;21.66
76009;BMP280;64700;52.130;21.270;2023-04-01T08:36:53;98709.22;;;21.68
76009;BMP280;64700;52.130;21.270;2023-04-01T08:39:28;98708.19;;;21.71
76009;BMP280;64700;52.130;21.270;2023-04-01T08:44:32;98715.66;;;21.65
76009;BMP280;64700;52.130;21.270;2023-04-01T08:49:41;98716.91;;;21.64
76009;BMP280;64700;52.130;21.270;2023-04-01T09:30:48;98716.44;;;21.42
76009;BMP280;64700;52.130;21.270;2023-04-01T09:33:36;98715.19;;;21.43
76009;BMP280;64700;52.130;21.270;2023-04-01T09:38:32;98718.91;;;21.40
76009;BMP280;64700;52.130;21.270;2023-04-01T09:41:07;98722.91;;;21.39
76009;BMP280;64700;52.130;21.270;2023-04-01T09:44:18;98719.44;;;21.38
76009;BMP280;64700;52.130;21.270;2023-04-01T09:49:17;98721.16;;;21.36
76009;BMP280;64700;52.130;21.270;2023-04-01T10:05:04;98739.97;;;21.33
76009;BMP280;64700;52.130;21.270;2023-04-01T10:26:08;98759.22;;;21.36
76009;BMP280;64700;52.130;21.270;2023-04-01T10:28:48;98758.28;;;21.33
76009;BMP280;64700;52.130;21.270;2023-04-01T10:36:47;98759.75;;;21.34
76009;BMP280;64700;52.130;21.270;2023-04-01T10:54:40;98767.66;;;21.32
76009;BMP280;64700;52.130;21.270;2023-04-01T10:57:55;98767.47;;;21.30
76009;BMP280;64700;52.130;21.270;2023-04-01T11:02:36;98764.75;;;21.30
76009;BMP280;64700;52.130;21.270;2023-04-01T11:13:58;98771.22;;;21.27
76009;BMP280;64700;52.130;21.270;2023-04-01T11:26:08;98765.19;;;21.34
76009;BMP280;64700;52.130;21.270;2023-04-01T11:33:44;98755.53;;;21.39
76009;BMP280;64700;52.130;21.270;2023-04-01T11:36:15;98757.72;;;21.40
76009;BMP280;64700;52.130;21.270;2023-04-01T11:43:54;98763.69;;;21.39
76009;BMP280;64700;52.130;21.270;2023-04-01T11:46:28;98757.25;;;21.36
76009;BMP280;64700;52.130;21.270;2023-04-01T11:52:09;98762.22;;;21.38
76009;BMP280;64700;52.130;21.270;2023-04-01T12:15:05;98774.38;;;21.31
76009;BMP280;64700;52.130;21.270;2023-04-01T12:17:38;98771.88;;;21.33
76009;BMP280;64700;52.130;21.270;2023-04-01T12:25:14;98769.13;;;21.39
76009;BMP280;64700;52.130;21.270;2023-04-01T12:48:27;98778.72;;;21.40
76009;BMP280;64700;52.130;21.270;2023-04-01T12:59:14;98782.97;;;21.35
76009;BMP280;64700;52.130;21.270;2023-04-01T13:04:14;98779.00;;;21.36
76009;BMP280;64700;52.130;21.270;2023-04-01T13:06:53;98783.19;;;21.37
76009;BMP280;64700;52.130;21.270;2023-04-01T13:22:08;98800.47;;;21.40
76009;BMP280;64700;52.130;21.270;2023-04-01T13:27:07;98804.94;;;21.37
76009;BMP280;64700;52.130;21.270;2023-04-01T13:29:41;98801.47;;;21.37
76009;BMP280;64700;52.130;21.270;2023-04-01T13:40:14;98806.44;;;21.38
76009;BMP280;64700;52.130;21.270;2023-04-01T14:01:37;98813.09;;;21.37
76009;BMP280;64700;52.130;21.270;2023-04-01T14:03:48;98817.53;;;21.40
76009;BMP280;64700;52.130;21.270;2023-04-01T14:16:55;98816.78;;;21.40
76009;BMP280;64700;52.130;21.270;2023-04-01T14:48:29;98852.59;;;21.44
76009;BMP280;64700;52.130;21.270;2023-04-01T14:50:56;98849.66;;;21.42
76009;BMP280;64700;52.130;21.270;2023-04-01T14:53:26;98853.13;;;21.42
76009;BMP280;64700;52.130;21.270;2023-04-01T14:55:52;98852.91;;;21.35
76009;BMP280;64700;52.130;21.270;2023-04-01T14:58:18;98863.47;;;21.44
76009;BMP280;64700;52.130;21.270;2023-04-01T15:08:44;98861.06;;;21.35
76009;BMP280;64700;52.130;21.270;2023-04-01T15:37:04;98900.13;;;21.31
76009;BMP280;64700;52.130;21.270;2023-04-01T16:16:19;98978.69;;;21.41
76009;BMP280;64700;52.130;21.270;2023-04-01T16:18:53;98984.16;;;21.35
76009;BMP280;64700;52.130;21.270;2023-04-01T16:23:53;98993.56;;;21.28
76009;BMP280;64700;52.130;21.270;2023-04-01T16:26:23;98992.09;;;21.27
76009;BMP280;64700;52.130;21.270;2023-04-01T16:31:37;99002.97;;;21.27
76009;BMP280;64700;52.130;21.270;2023-04-01T16:34:09;99005.94;;;21.29
76009;BMP280;64700;52.130;21.270;2023-04-01T16:41:29;99017.28;;;21.33
76009;BMP280;64700;52.130;21.270;2023-04-01T16:43:57;99027.66;;;21.35
76009;BMP280;64700;52.130;21.270;2023-04-01T16:46:33;99033.34;;;21.31
76009;BMP280;64700;52.130;21.270;2023-04-01T16:51:40;99037.53;;;21.32
76009;BMP280;64700;52.130;21.270;2023-04-01T16:57:11;99056.03;;;21.40
76009;BMP280;64700;52.130;21.270;2023-04-01T16:59:38;99058.06;;;21.39
76009;BMP280;64700;52.130;21.270;2023-04-01T17:19:46;99086.94;;;21.42
76009;BMP280;64700;52.130;21.270;2023-04-01T17:27:50;99097.81;;;21.42
76009;BMP280;64700;52.130;21.270;2023-04-01T17:32:31;99112.63;;;21.47
76009;BMP280;64700;52.130;21.270;2023-04-01T17:37:50;99113.63;;;21.44
76009;BMP280;64700;52.130;21.270;2023-04-01T17:53:22;99143.53;;;21.44
76009;BMP280;64700;52.130;21.270;2023-04-01T18:16:32;99182.13;;;21.42
76009;BMP280;64700;52.130;21.270;2023-04-01T18:21:46;99179.66;;;21.33
76009;BMP280;64700;52.130;21.270;2023-04-01T18:26:38;99188.81;;;21.30
76009;BMP280;64700;52.130;21.270;2023-04-01T18:29:13;99190.06;;;21.29
76009;BMP280;64700;52.130;21.270;2023-04-01T18:31:51;99191.06;;;21.26
76009;BMP280;64700;52.130;21.270;2023-04-01T18:34:19;99199.44;;;21.28
76009;BMP280;64700;52.130;21.270;2023-04-01T18:36:51;99194.53;;;21.26
76009;BMP280;64700;52.130;21.270;2023-04-01T18:49:41;99218.00;;;21.24
76009;BMP280;64700;52.130;21.270;2023-04-01T18:52:10;99219.72;;;21.27
76009;BMP280;64700;52.130;21.270;2023-04-01T18:54:50;99224.38;;;21.32
76009;BMP280;64700;52.130;21.270;2023-04-01T18:57:18;99231.56;;;21.29
76009;BMP280;64700;52.130;21.270;2023-04-01T19:07:40;99240.22;;;21.28
76009;BMP280;64700;52.130;21.270;2023-04-01T19:12:39;99238.47;;;21.42
76009;BMP280;64700;52.130;21.270;2023-04-01T19:25:25;99254.78;;;21.36
76009;BMP280;64700;52.130;21.270;2023-04-01T19:27:57;99254.03;;;21.36
76009;BMP280;64700;52.130;21.270;2023-04-01T19:30:27;99263.22;;;21.38
76009;BMP280;64700;52.130;21.270;2023-04-01T19:38:26;99268.38;;;21.36
76009;BMP280;64700;52.130;21.270;2023-04-01T19:40:54;99278.00;;;21.37
76009;BMP280;64700;52.130;21.270;2023-04-01T19:43:30;99281.72;;;21.40
76009;BMP280;64700;52.130;21.270;2023-04-01T19:51:11;99293.84;;;21.33
76009;BMP280;64700;52.130;21.270;2023-04-01T19:53:41;99298.06;;;21.34
76009;BMP280;64700;52.130;21.270;2023-04-01T19:58:51;99300.75;;;21.45
76009;BMP280;64700;52.130;21.270;2023-04-01T20:04:51;99310.41;;;21.46
76009;BMP280;64700;52.130;21.270;2023-04-01T20:06:48;99313.88;;;21.41
76009;BMP280;64700;52.130;21.270;2023-04-01T20:14:45;99314.84;;;21.44
76009;BMP280;64700;52.130;21.270;2023-04-01T20:17:24;99313.63;;;21.45
76009;BMP280;64700;52.130;21.270;2023-04-01T20:27:58;99335.88;;;21.38
76009;BMP280;64700;52.130;21.270;2023-04-01T20:51:30;99362.06;;;21.35
76009;BMP280;64700;52.130;21.270;2023-04-01T20:54:05;99357.88;;;21.34
76009;BMP280;64700;52.130;21.270;2023-04-01T20:56:53;99364.53;;;21.33
76009;BMP280;64700;52.130;21.270;2023-04-01T21:07:34;99380.63;;;21.31
76009;BMP280;64700;52.130;21.270;2023-04-01T21:20:15;99396.41;;;21.21
76009;BMP280;64700;52.130;21.270;2023-04-01T21:31:08;99410.75;;;21.22
76009;BMP280;64700;52.130;21.270;2023-04-01T21:41:14;99420.13;;;21.15
76009;BMP280;64700;52.130;21.270;2023-04-01T21:43:54;99424.09;;;21.14
76009;BMP280;64700;52.130;21.270;2023-04-01T22:06:49;99452.50;;;21.13
76009;BMP280;64700;52.130;21.270;2023-04-01T22:09:21;99452.50;;;21.13
76009;BMP280;64700;52.130;21.270;2023-04-01T22:14:26;99460.66;;;21.13
76009;BMP280;64700;52.130;21.270;2023-04-01T22:22:22;99464.13;;;21.14
76009;BMP280;64700;52.130;21.270;2023-04-01T22:35:12;99471.25;;;21.11
76009;BMP280;64700;52.130;21.270;2023-04-01T22:42:59;99487.09;;;21.13
76009;BMP280;64700;52.130;21.270;2023-04-01T22:50:22;99486.13;;;21.10
76009;BMP280;64700;52.130;21.270;2023-04-01T22:52:51;99483.91;;;21.14
76009;BMP280;64700;52.130;21.270;2023-04-01T22:55:27;99493.75;;;21.12
76009;BMP280;64700;52.130;21.270;2023-04-01T22:57:58;99498.44;;;21.11
76009;BMP280;64700;52.130;21.270;2023-04-01T23:03:20;99502.16;;;21.08
76009;BMP280;64700;52.130;21.270;2023-04-01T23:05:51;99511.06;;;21.09
76009;BMP280;64700;52.130;21.270;2023-04-01T23:10:42;99504.59;;;21.06
76009;BMP280;64700;52.130;21.270;2023-04-01T23:13:14;99509.09;;;21.09
76009;BMP280;64700;52.130;21.270;2023-04-01T23:15:41;99515.00;;;21.08
76009;BMP280;64700;52.130;21.270;2023-04-01T23:18:22;99515.47;;;21.06
76009;BMP280;64700;52.130;21.270;2023-04-01T23:20:54;99514.75;;;21.06
76009;BMP280;64700;52.130;21.270;2023-04-01T23:23:36;99514.97;;;21.02
76009;BMP280;64700;52.130;21.270;2023-04-01T23:31:01;99526.81;;;20.99
76009;BMP280;64700;52.130;21.270;2023-04-01T23:33:30;99528.31;;;21.00
76009;BMP280;64700;52.130;21.270;2023-04-01T23:35:57;99528.31;;;21.00
76009;BMP280;64700;52.130;21.270;2023-04-01T23:38:30;99530.53;;;21.02
76009;BMP280;64700;52.130;21.270;2023-04-01T23:40:56;99530.03;;;21.03
76009;BMP280;64700;52.130;21.270;2023-04-01T23:43:25;99536.94;;;20.99
76009;BMP280;64700;52.130;21.270;2023-04-01T23:45:52;99533.97;;;20.97
76009;BMP280;64700;52.130;21.270;2023-04-01T23:48:18;99544.09;;;20.96
76009;BMP280;64700;52.130;21.270;2023-04-01T23:50:44;99545.09;;;20.99
76009;BMP280;64700;52.130;21.270;2023-04-01T23:53:13;99548.31;;;20.97
76009;BMP280;64700;52.130;21.270;2023-04-01T23:55:41;99548.03;;;20.95
